createdAt,value
2022-08-28T00:00:41.626Z,15.20
2022-08-28T00:03:11.064Z,15.30
2022-08-28T00:05:39.558Z,15.30
2022-08-28T00:08:08.352Z,15.30
2022-08-28T00:10:35.351Z,15.30
2022-08-28T00:13:02.540Z,15.40
2022-08-28T00:15:32.954Z,15.40
2022-08-28T00:18:00.960Z,15.40
2022-08-28T00:20:29.454Z,15.40
2022-08-28T00:22:56.766Z,15.50
2022-08-28T00:25:25.669Z,15.50
2022-08-28T00:27:55.226Z,15.50
2022-08-28T00:30:27.186Z,15.50
2022-08-28T00:32:56.248Z,15.50
2022-08-28T00:35:23.778Z,15.50
2022-08-28T00:37:52.881Z,15.50
2022-08-28T00:40:30.634Z,15.50
2022-08-28T00:43:02.079Z,15.50
2022-08-28T00:45:29.761Z,15.50
2022-08-28T00:47:56.875Z,15.50
2022-08-28T00:50:27.798Z,15.50
2022-08-28T00:52:59.787Z,15.50
2022-08-28T00:55:28.159Z,15.50
2022-08-28T00:58:00.389Z,15.50
2022-08-28T01:00:29.332Z,15.50
2022-08-28T01:02:56.427Z,15.50
2022-08-28T01:05:23.860Z,15.50
2022-08-28T01:07:52.007Z,15.50
2022-08-28T01:10:23.155Z,15.50
2022-08-28T01:12:50.731Z,15.50
2022-08-28T01:15:20.094Z,15.50
2022-08-28T01:17:50.363Z,15.60
2022-08-28T01:20:22.056Z,15.60
2022-08-28T01:23:15.015Z,15.50
2022-08-28T01:25:42.615Z,15.50
2022-08-28T01:28:12.849Z,15.50
2022-08-28T01:30:42.531Z,15.50
2022-08-28T01:33:09.393Z,15.60
2022-08-28T01:35:43.381Z,15.50
2022-08-28T01:38:10.381Z,15.50
2022-08-28T01:40:40.311Z,15.50
2022-08-28T01:43:10.536Z,15.50
2022-08-28T01:45:37.686Z,15.50
2022-08-28T01:48:06.611Z,15.40
2022-08-28T01:50:34.390Z,15.40
2022-08-28T01:53:01.737Z,15.40
2022-08-28T01:55:28.848Z,15.40
2022-08-28T01:57:56.497Z,15.40
2022-08-28T02:00:27.515Z,15.30
2022-08-28T02:02:56.590Z,15.30
2022-08-28T02:05:25.517Z,15.30
2022-08-28T02:07:52.605Z,15.30
2022-08-28T02:10:24.254Z,15.20
2022-08-28T02:12:52.952Z,15.20
2022-08-28T02:15:20.001Z,15.20
2022-08-28T02:17:50.412Z,15.10
2022-08-28T02:20:17.723Z,15.10
2022-08-28T02:22:45.546Z,15.10
2022-08-28T02:25:12.640Z,15.00
2022-08-28T02:27:39.893Z,15.00
2022-08-28T02:30:09.891Z,15.00
2022-08-28T02:32:36.893Z,14.90
2022-08-28T02:35:05.560Z,14.90
2022-08-28T02:37:39.593Z,14.90
2022-08-28T02:40:07.196Z,14.90
2022-08-28T02:42:34.269Z,15.00
2022-08-28T02:45:01.462Z,14.90
2022-08-28T02:47:28.387Z,14.90
2022-08-28T02:49:55.227Z,15.00
2022-08-28T02:52:23.564Z,15.00
2022-08-28T02:54:50.596Z,15.00
2022-08-28T02:57:17.593Z,15.00
2022-08-28T02:59:44.540Z,15.00
2022-08-28T03:02:11.379Z,15.00
2022-08-28T03:04:38.585Z,15.00
2022-08-28T03:07:07.443Z,15.00
2022-08-28T03:09:34.179Z,15.10
2022-08-28T03:12:00.928Z,15.00
2022-08-28T03:14:27.977Z,15.00
2022-08-28T03:16:54.700Z,15.10
2022-08-28T03:19:21.457Z,15.10
2022-08-28T03:21:48.200Z,15.10
2022-08-28T03:24:19.133Z,15.10
2022-08-28T03:26:46.138Z,15.10
2022-08-28T03:29:13.147Z,15.10
2022-08-28T03:31:39.905Z,15.10
2022-08-28T03:34:06.760Z,15.10
2022-08-28T03:36:33.928Z,15.10
2022-08-28T03:39:04.044Z,15.10
2022-08-28T03:41:31.829Z,15.10
2022-08-28T03:44:00.606Z,15.00
2022-08-28T03:46:29.488Z,15.00
2022-08-28T03:48:56.356Z,15.00
2022-08-28T03:51:29.222Z,15.00
2022-08-28T03:53:58.266Z,15.00
2022-08-28T03:56:26.635Z,15.00
2022-08-28T03:58:57.344Z,15.10
2022-08-28T04:01:24.993Z,15.00
2022-08-28T04:03:51.817Z,15.10
2022-08-28T04:06:19.659Z,15.00
2022-08-28T04:08:47.274Z,15.00
2022-08-28T04:11:14.112Z,15.00
2022-08-28T04:13:41.902Z,15.10
2022-08-28T04:16:12.176Z,15.10
2022-08-28T04:18:41.839Z,15.10
2022-08-28T04:21:11.713Z,15.10
2022-08-28T04:23:40.100Z,15.10
2022-08-28T04:26:12.397Z,15.10
2022-08-28T04:28:39.609Z,15.10
2022-08-28T04:31:08.191Z,15.10
2022-08-28T04:33:35.769Z,15.10
2022-08-28T04:36:05.531Z,15.10
2022-08-28T04:38:32.434Z,15.20
2022-08-28T04:40:59.736Z,15.10
2022-08-28T04:43:26.505Z,15.20
2022-08-28T04:45:53.291Z,15.20
2022-08-28T04:48:20.219Z,15.20
2022-08-28T04:50:48.123Z,15.20
2022-08-28T04:53:17.028Z,15.20
2022-08-28T04:55:54.629Z,15.20
2022-08-28T04:58:23.941Z,15.20
2022-08-28T05:00:53.028Z,15.20
2022-08-28T05:03:20.761Z,15.20
2022-08-28T05:05:50.277Z,15.20
2022-08-28T05:08:18.911Z,15.20
2022-08-28T05:10:46.945Z,15.30
2022-08-28T05:13:15.723Z,15.30
2022-08-28T05:15:44.674Z,15.30
2022-08-28T05:18:14.231Z,15.30
2022-08-28T05:20:44.687Z,15.30
2022-08-28T05:23:12.740Z,15.30
2022-08-28T05:25:43.168Z,15.30
2022-08-28T05:28:12.207Z,15.30
2022-08-28T05:30:40.756Z,15.30
2022-08-28T05:33:09.202Z,15.30
2022-08-28T05:35:38.750Z,15.40
2022-08-28T05:38:06.790Z,15.40
2022-08-28T05:40:34.451Z,15.40
2022-08-28T05:43:01.368Z,15.40
2022-08-28T05:45:28.071Z,15.40
2022-08-28T05:47:54.967Z,15.50
2022-08-28T05:50:21.784Z,15.50
2022-08-28T05:52:48.538Z,15.50
2022-08-28T05:55:15.510Z,15.50
2022-08-28T05:57:42.377Z,15.60
2022-08-28T06:00:13.346Z,15.60
2022-08-28T06:02:41.797Z,15.70
2022-08-28T06:05:09.670Z,15.80
2022-08-28T06:07:41.103Z,15.80
2022-08-28T06:10:10.479Z,15.90
2022-08-28T06:12:38.239Z,15.90
2022-08-28T06:15:05.966Z,16.00
2022-08-28T06:17:32.727Z,16.00
2022-08-28T06:19:59.556Z,16.00
2022-08-28T06:22:26.261Z,16.00
2022-08-28T06:24:53.869Z,16.10
2022-08-28T06:27:20.659Z,16.10
2022-08-28T06:29:47.636Z,16.10
2022-08-28T06:32:14.563Z,16.20
2022-08-28T06:34:41.755Z,16.20
2022-08-28T06:37:09.807Z,16.20
2022-08-28T06:39:36.629Z,16.20
2022-08-28T06:42:03.698Z,16.30
2022-08-28T06:44:32.126Z,16.30
2022-08-28T06:47:00.302Z,16.30
2022-08-28T06:49:27.125Z,16.30
2022-08-28T06:51:54.134Z,16.30
2022-08-28T06:54:23.298Z,16.40
2022-08-28T06:56:51.762Z,16.40
2022-08-28T06:59:18.604Z,16.50
2022-08-28T07:01:45.497Z,16.50
2022-08-28T07:04:14.513Z,16.60
2022-08-28T07:06:46.718Z,16.60
2022-08-28T07:09:14.528Z,16.70
2022-08-28T07:11:45.420Z,16.70
2022-08-28T07:14:12.409Z,16.80
2022-08-28T07:16:39.791Z,16.90
2022-08-28T07:19:08.452Z,16.90
2022-08-28T07:21:39.494Z,17.00
2022-08-28T07:24:08.467Z,17.10
2022-08-28T07:26:35.859Z,17.20
2022-08-28T07:29:11.087Z,17.30
2022-08-28T07:31:44.297Z,17.40
2022-08-28T07:34:13.492Z,17.40
2022-08-28T07:36:41.128Z,17.50
2022-08-28T07:39:09.774Z,17.60
2022-08-28T07:41:39.335Z,17.70
2022-08-28T07:44:26.125Z,17.70
2022-08-28T07:46:54.837Z,17.90
2022-08-28T07:49:22.550Z,18.00
2022-08-28T07:51:49.484Z,18.10
2022-08-28T07:54:21.216Z,18.30
2022-08-28T07:56:47.954Z,18.40
2022-08-28T07:59:16.837Z,18.40
2022-08-28T08:01:46.517Z,18.40
2022-08-28T08:04:16.176Z,18.50
2022-08-28T08:06:44.327Z,18.50
2022-08-28T08:09:14.307Z,18.60
2022-08-28T08:11:42.378Z,18.60
2022-08-28T08:14:09.949Z,18.70
2022-08-28T08:16:39.548Z,18.70
2022-08-28T08:19:09.774Z,18.70
2022-08-28T08:21:37.442Z,18.80
2022-08-28T08:24:04.432Z,18.80
2022-08-28T08:26:31.185Z,18.90
2022-08-28T08:28:58.924Z,19.00
2022-08-28T08:31:29.440Z,19.00
2022-08-28T08:34:01.432Z,19.10
2022-08-28T08:36:30.216Z,19.10
2022-08-28T08:39:00.057Z,19.20
2022-08-28T08:41:48.660Z,19.30
2022-08-28T08:44:33.227Z,19.30
2022-08-28T08:47:07.858Z,19.40
2022-08-28T08:49:42.086Z,19.40
2022-08-28T08:52:12.020Z,19.50
2022-08-28T08:55:09.910Z,19.60
2022-08-28T08:57:38.958Z,19.70
2022-08-28T09:00:12.274Z,19.80
2022-08-28T09:02:58.632Z,19.80
2022-08-28T09:05:46.673Z,19.80
2022-08-28T09:08:33.921Z,19.80
2022-08-28T09:11:13.783Z,19.90
2022-08-28T09:14:20.641Z,19.90
2022-08-28T09:16:55.881Z,20.00
2022-08-28T09:19:22.884Z,20.10
2022-08-28T09:21:51.645Z,20.10
2022-08-28T09:24:26.621Z,20.20
2022-08-28T09:27:11.081Z,20.30
2022-08-28T09:29:47.042Z,20.40
2022-08-28T09:32:29.780Z,20.60
2022-08-28T09:35:24.475Z,20.80
2022-08-28T09:37:51.628Z,21.20
2022-08-28T09:40:51.151Z,21.60
2022-08-28T09:43:27.846Z,22.10
2022-08-28T09:46:03.000Z,22.30
2022-08-28T09:48:43.398Z,22.50
2022-08-28T09:51:22.517Z,22.80
2022-08-28T09:53:52.450Z,23.00
2022-08-28T09:56:34.258Z,23.00
2022-08-28T09:59:08.576Z,23.00
2022-08-28T10:01:45.176Z,23.30
2022-08-28T10:04:18.094Z,23.70
2022-08-28T10:07:26.799Z,24.00
2022-08-28T10:10:06.450Z,24.00
2022-08-28T10:13:00.212Z,23.80
2022-08-28T10:15:43.267Z,23.80
2022-08-28T10:18:17.927Z,23.90
2022-08-28T10:21:13.008Z,24.00
2022-08-28T10:24:13.208Z,24.00
2022-08-28T10:26:55.244Z,24.00
2022-08-28T10:30:05.208Z,24.20
2022-08-28T10:32:45.546Z,24.30
2022-08-28T10:35:18.199Z,24.40
2022-08-28T10:38:16.893Z,24.40
2022-08-28T10:41:04.491Z,24.20
2022-08-28T10:43:37.493Z,24.40
2022-08-28T10:46:10.337Z,24.70
2022-08-28T10:48:46.488Z,25.00
2022-08-28T10:51:43.652Z,25.40
2022-08-28T10:54:23.456Z,25.50
2022-08-28T10:57:24.767Z,25.40
2022-08-28T10:59:54.131Z,25.40
2022-08-28T11:02:25.101Z,25.50
2022-08-28T11:04:58.250Z,25.70
2022-08-28T11:07:49.487Z,25.80
2022-08-28T11:10:19.276Z,25.90
2022-08-28T11:12:48.158Z,26.10
2022-08-28T11:15:34.204Z,26.20
2022-08-28T11:18:15.886Z,26.30
2022-08-28T11:20:56.730Z,26.50
2022-08-28T11:23:41.931Z,26.60
2022-08-28T11:26:12.353Z,26.80
2022-08-28T11:28:47.241Z,26.90
2022-08-28T11:31:18.172Z,27.10
2022-08-28T11:33:58.822Z,27.20
2022-08-28T11:36:28.043Z,27.20
2022-08-28T11:38:54.874Z,27.30
2022-08-28T11:41:30.668Z,27.30
2022-08-28T11:44:09.419Z,27.40
2022-08-28T11:47:16.404Z,27.40
2022-08-28T11:49:44.620Z,27.60
2022-08-28T11:52:23.528Z,27.70
2022-08-28T11:55:22.254Z,27.70
2022-08-28T11:58:14.597Z,27.70
2022-08-28T12:01:19.546Z,27.60
2022-08-28T12:04:03.868Z,27.50
2022-08-28T12:06:52.738Z,27.50
2022-08-28T12:09:39.024Z,27.60
2022-08-28T12:12:10.799Z,27.70
2022-08-28T12:14:40.904Z,27.80
2022-08-28T12:17:20.181Z,27.90
2022-08-28T12:20:26.969Z,27.90
2022-08-28T12:22:56.811Z,27.60
2022-08-28T12:25:40.449Z,27.40
2022-08-28T12:28:29.476Z,27.50
2022-08-28T12:31:05.189Z,27.50
2022-08-28T12:33:48.397Z,27.60
2022-08-28T12:36:18.538Z,27.60
2022-08-28T12:38:53.686Z,27.70
2022-08-28T12:41:22.351Z,27.60
2022-08-28T12:43:53.437Z,27.70
2022-08-28T12:46:40.424Z,27.70
2022-08-28T12:49:30.219Z,27.60
2022-08-28T12:52:17.036Z,27.70
2022-08-28T12:54:46.264Z,27.70
2022-08-28T12:57:15.955Z,27.80
2022-08-28T12:59:45.644Z,27.80
2022-08-28T13:02:28.158Z,27.80
2022-08-28T13:04:55.607Z,27.90
2022-08-28T13:07:38.318Z,28.00
2022-08-28T13:10:20.899Z,28.10
2022-08-28T13:12:56.874Z,28.20
2022-08-28T13:15:55.167Z,28.10
2022-08-28T13:18:50.361Z,28.10
2022-08-28T13:21:32.721Z,28.20
2022-08-28T13:24:21.420Z,28.30
2022-08-28T13:26:59.165Z,28.10
2022-08-28T13:29:26.301Z,28.00
2022-08-28T13:32:00.813Z,28.10
2022-08-28T13:34:36.646Z,28.10
2022-08-28T13:37:18.522Z,28.10
2022-08-28T13:39:47.674Z,28.10
2022-08-28T13:42:16.874Z,28.10
2022-08-28T13:44:50.629Z,28.10
2022-08-28T13:47:17.693Z,28.10
2022-08-28T13:49:44.803Z,28.00
2022-08-28T13:52:12.192Z,28.00
2022-08-28T13:54:43.509Z,28.00
2022-08-28T13:57:11.030Z,28.10
2022-08-28T13:59:37.914Z,28.20
2022-08-28T14:02:25.342Z,28.00
2022-08-28T14:04:52.191Z,27.90
2022-08-28T14:07:19.050Z,27.90
2022-08-28T14:09:45.968Z,27.90
2022-08-28T14:12:12.903Z,28.00
2022-08-28T14:14:39.762Z,28.00
2022-08-28T14:17:08.601Z,27.90
2022-08-28T14:19:35.778Z,27.70
2022-08-28T14:22:02.722Z,27.40
2022-08-28T14:24:29.839Z,27.40
2022-08-28T14:26:57.114Z,27.40
2022-08-28T14:29:23.987Z,27.30
2022-08-28T14:31:51.025Z,27.30
2022-08-28T14:34:21.482Z,27.20
2022-08-28T14:36:55.012Z,27.20
2022-08-28T14:39:25.047Z,27.20
2022-08-28T14:41:53.246Z,27.10
2022-08-28T14:44:21.694Z,27.10
2022-08-28T14:46:58.122Z,27.10
2022-08-28T14:49:26.493Z,27.00
2022-08-28T14:51:54.931Z,27.00
2022-08-28T14:54:24.006Z,27.10
2022-08-28T14:56:52.468Z,27.10
2022-08-28T14:59:24.529Z,27.00
2022-08-28T15:01:53.096Z,27.10
2022-08-28T15:04:22.808Z,27.10
2022-08-28T15:06:51.169Z,27.00
2022-08-28T15:09:19.201Z,26.90
2022-08-28T15:11:46.310Z,26.90
2022-08-28T15:14:13.674Z,26.90
2022-08-28T15:16:43.552Z,26.80
2022-08-28T15:19:12.296Z,26.70
2022-08-28T15:21:44.481Z,26.70
2022-08-28T15:24:11.596Z,26.60
2022-08-28T15:26:40.046Z,26.40
2022-08-28T15:29:07.811Z,26.10
2022-08-28T15:31:37.736Z,25.70
2022-08-28T15:34:17.104Z,25.50
2022-08-28T15:36:45.841Z,25.30
2022-08-28T15:39:40.703Z,25.10
2022-08-28T15:42:09.000Z,25.00
2022-08-28T15:44:35.960Z,24.90
2022-08-28T15:47:04.952Z,24.90
2022-08-28T15:49:36.191Z,24.90
2022-08-28T15:52:11.530Z,24.90
2022-08-28T15:54:38.368Z,24.90
2022-08-28T15:57:05.370Z,24.80
2022-08-28T15:59:48.551Z,24.80
2022-08-28T16:02:16.287Z,24.70
2022-08-28T16:04:43.105Z,24.70
2022-08-28T16:07:09.913Z,24.60
2022-08-28T16:09:36.892Z,24.60
2022-08-28T16:12:04.039Z,24.40
2022-08-28T16:14:33.058Z,24.20
2022-08-28T16:17:05.994Z,23.90
2022-08-28T16:19:39.012Z,23.70
2022-08-28T16:22:06.456Z,23.50
2022-08-28T16:24:33.594Z,23.20
2022-08-28T16:27:00.489Z,23.10
2022-08-28T16:29:27.395Z,22.90
2022-08-28T16:31:54.290Z,22.70
2022-08-28T16:34:21.335Z,22.60
2022-08-28T16:36:48.420Z,22.40
2022-08-28T16:39:15.421Z,22.20
2022-08-28T16:41:46.188Z,22.10
2022-08-28T16:44:13.015Z,22.00
2022-08-28T16:46:39.906Z,21.90
2022-08-28T16:49:06.947Z,21.80
2022-08-28T16:51:33.871Z,21.70
2022-08-28T16:54:01.023Z,21.60
2022-08-28T16:56:27.794Z,21.50
2022-08-28T16:58:54.609Z,21.40
2022-08-28T17:01:24.090Z,21.30
2022-08-28T17:03:53.205Z,21.30
2022-08-28T17:06:24.052Z,21.20
2022-08-28T17:08:55.922Z,21.20
2022-08-28T17:11:27.140Z,21.10
2022-08-28T17:13:55.326Z,21.00
2022-08-28T17:16:23.610Z,21.00
2022-08-28T17:18:52.116Z,20.90
2022-08-28T17:21:39.547Z,20.90
2022-08-28T17:24:06.992Z,20.80
2022-08-28T17:26:33.923Z,20.80
2022-08-28T17:29:00.719Z,20.80
2022-08-28T17:31:27.916Z,20.70
2022-08-28T17:33:54.740Z,20.70
2022-08-28T17:36:33.512Z,20.60
2022-08-28T17:39:07.527Z,20.60
2022-08-28T17:41:35.339Z,20.50
2022-08-28T17:44:02.678Z,20.50
2022-08-28T17:46:31.861Z,20.40
2022-08-28T17:49:03.294Z,20.40
2022-08-28T17:51:43.026Z,20.30
2022-08-28T17:54:15.553Z,20.30
2022-08-28T17:56:42.501Z,20.30
2022-08-28T17:59:10.342Z,20.20
2022-08-28T18:01:38.344Z,20.20
2022-08-28T18:04:05.920Z,20.10
2022-08-28T18:06:33.016Z,20.10
2022-08-28T18:09:00.400Z,20.10
2022-08-28T18:11:28.133Z,20.00
2022-08-28T18:13:55.090Z,19.90
2022-08-28T18:16:22.003Z,19.90
2022-08-28T18:18:49.191Z,19.80
2022-08-28T18:21:16.016Z,19.80
2022-08-28T18:23:42.826Z,19.70
2022-08-28T18:26:09.832Z,19.60
2022-08-28T18:28:37.447Z,19.60
2022-08-28T18:31:06.359Z,19.60
2022-08-28T18:33:34.234Z,19.50
2022-08-28T18:36:01.934Z,19.50
2022-08-28T18:38:29.819Z,19.40
2022-08-28T18:40:59.585Z,19.40
2022-08-28T18:43:26.451Z,19.40
2022-08-28T18:45:53.589Z,19.30
2022-08-28T18:48:20.642Z,19.20
2022-08-28T18:50:48.282Z,19.20
2022-08-28T18:53:16.857Z,19.10
2022-08-28T18:55:43.813Z,19.10
2022-08-28T18:58:14.014Z,19.00
2022-08-28T19:00:42.227Z,19.00
2022-08-28T19:03:09.379Z,19.00
2022-08-28T19:05:37.952Z,18.90
2022-08-28T19:08:05.092Z,18.90
2022-08-28T19:10:34.293Z,18.80
2022-08-28T19:13:03.273Z,18.80
2022-08-28T19:15:31.118Z,18.70
2022-08-28T19:18:00.340Z,18.70
2022-08-28T19:20:28.701Z,18.70
2022-08-28T19:22:56.947Z,18.60
2022-08-28T19:25:28.632Z,18.50
2022-08-28T19:28:01.631Z,18.40
2022-08-28T19:30:33.185Z,18.40
2022-08-28T19:33:02.275Z,18.30
2022-08-28T19:35:29.267Z,18.30
2022-08-28T19:37:56.137Z,18.20
2022-08-28T19:40:23.553Z,18.20
2022-08-28T19:42:51.233Z,18.10
2022-08-28T19:45:18.310Z,18.00
2022-08-28T19:47:46.917Z,18.00
2022-08-28T19:50:14.844Z,17.90
2022-08-28T19:52:43.444Z,17.90
2022-08-28T19:55:19.305Z,17.80
2022-08-28T19:57:48.116Z,17.70
2022-08-28T20:00:18.150Z,17.60
2022-08-28T20:02:45.667Z,17.60
2022-08-28T20:05:12.642Z,17.60
2022-08-28T20:07:39.686Z,17.60
2022-08-28T20:10:07.336Z,17.50
2022-08-28T20:12:34.540Z,17.50
2022-08-28T20:15:03.656Z,17.50
2022-08-28T20:17:31.121Z,17.40
2022-08-28T20:20:02.860Z,17.40
2022-08-28T20:22:31.745Z,17.40
2022-08-28T20:24:59.878Z,17.30
2022-08-28T20:27:28.141Z,17.30
2022-08-28T20:29:54.870Z,17.30
2022-08-28T20:32:21.563Z,17.30
2022-08-28T20:34:48.446Z,17.20
2022-08-28T20:37:16.775Z,17.20
2022-08-28T20:39:43.574Z,17.20
2022-08-28T20:42:11.695Z,17.10
2022-08-28T20:44:38.410Z,17.10
2022-08-28T20:47:05.506Z,17.00
2022-08-28T20:49:32.314Z,17.00
2022-08-28T20:52:05.862Z,16.90
2022-08-28T20:54:36.889Z,16.90
2022-08-28T20:57:07.573Z,16.90
2022-08-28T20:59:39.873Z,16.80
2022-08-28T21:02:28.853Z,16.80
2022-08-28T21:04:55.949Z,16.80
2022-08-28T21:07:24.713Z,16.70
2022-08-28T21:10:06.696Z,16.70
2022-08-28T21:12:39.360Z,16.70
2022-08-28T21:15:09.313Z,16.60
2022-08-28T21:17:36.402Z,16.60
2022-08-28T21:20:12.050Z,16.60
2022-08-28T21:22:40.177Z,16.50
2022-08-28T21:25:09.009Z,16.50
2022-08-28T21:27:36.786Z,16.50
2022-08-28T21:30:05.564Z,16.50
2022-08-28T21:32:33.826Z,16.50
2022-08-28T21:35:02.169Z,16.50
2022-08-28T21:37:29.119Z,16.40
2022-08-28T21:39:56.646Z,16.40
2022-08-28T21:42:23.911Z,16.40
2022-08-28T21:44:51.978Z,16.40
2022-08-28T21:47:21.317Z,16.30
2022-08-28T21:49:50.035Z,16.30
2022-08-28T21:52:18.316Z,16.30
2022-08-28T21:54:45.157Z,16.30
2022-08-28T21:57:11.929Z,16.20
2022-08-28T21:59:38.956Z,16.20
2022-08-28T22:02:06.118Z,16.10
2022-08-28T22:04:33.033Z,16.10
2022-08-28T22:06:59.744Z,16.10
2022-08-28T22:09:26.417Z,16.10
2022-08-28T22:11:53.363Z,16.10
2022-08-28T22:14:20.115Z,16.00
2022-08-28T22:16:46.855Z,16.00
2022-08-28T22:19:13.713Z,16.00
2022-08-28T22:21:58.940Z,15.90
2022-08-28T22:24:25.698Z,15.90
2022-08-28T22:26:57.498Z,15.90
2022-08-28T22:29:25.127Z,15.80
2022-08-28T22:31:52.665Z,15.80
2022-08-28T22:34:19.822Z,15.70
2022-08-28T22:36:46.972Z,15.60
2022-08-28T22:39:13.797Z,15.60
2022-08-28T22:41:40.645Z,15.60
2022-08-28T22:44:07.598Z,15.50
2022-08-28T22:46:35.192Z,15.50
2022-08-28T22:49:01.903Z,15.50
2022-08-28T22:51:28.539Z,15.50
2022-08-28T22:53:55.995Z,15.50
2022-08-28T22:56:22.891Z,15.50
2022-08-28T22:58:49.622Z,15.50
2022-08-28T23:01:18.082Z,15.40
2022-08-28T23:03:45.898Z,15.40
2022-08-28T23:06:13.653Z,15.40
2022-08-28T23:08:40.525Z,15.40
2022-08-28T23:11:07.859Z,15.40
2022-08-28T23:13:34.815Z,15.40
2022-08-28T23:16:02.512Z,15.30
2022-08-28T23:18:38.003Z,15.30
2022-08-28T23:21:13.301Z,15.20
2022-08-28T23:23:39.905Z,15.20
2022-08-28T23:26:11.798Z,15.10
2022-08-28T23:28:39.040Z,15.10
2022-08-28T23:31:05.903Z,15.10
2022-08-28T23:33:32.675Z,15.10
2022-08-28T23:35:59.393Z,15.10
2022-08-28T23:38:26.258Z,15.10
2022-08-28T23:40:52.874Z,15.10
2022-08-28T23:43:19.753Z,15.10
2022-08-28T23:45:47.752Z,15.00
2022-08-28T23:48:15.255Z,15.00
2022-08-28T23:50:42.425Z,14.90
2022-08-28T23:53:10.596Z,14.90
2022-08-28T23:55:37.721Z,14.90
2022-08-28T23:58:05.349Z,14.80
